createdAt,value
2022-10-15T00:02:37.557Z,38.70
2022-10-15T00:07:36.467Z,40.70
2022-10-15T00:12:36.326Z,49.60
2022-10-15T00:17:36.330Z,33.30
2022-10-15T00:22:36.192Z,36.30
2022-10-15T00:27:36.191Z,35.60
2022-10-15T00:32:36.074Z,37.20
2022-10-15T00:37:36.094Z,33.90
2022-10-15T00:42:36.029Z,49.50
2022-10-15T00:47:35.992Z,48.20
2022-10-15T00:52:35.950Z,38.90
2022-10-15T00:57:36.924Z,42.70
2022-10-15T01:02:35.881Z,43.70
2022-10-15T01:07:35.668Z,47.70
2022-10-15T01:12:35.632Z,49.90
2022-10-15T01:17:35.573Z,42.70
2022-10-15T01:22:35.638Z,29.80
2022-10-15T01:27:35.603Z,36.50
2022-10-15T01:32:35.541Z,42.20
2022-10-15T01:37:35.388Z,37.20
2022-10-15T01:42:35.410Z,36.40
2022-10-15T01:47:35.237Z,38.30
2022-10-15T01:52:35.176Z,41.40
2022-10-15T01:57:35.126Z,45.40
2022-10-15T02:02:35.159Z,41.00
2022-10-15T02:07:35.086Z,40.00
2022-10-15T02:12:35.024Z,40.70
2022-10-15T02:17:34.979Z,54.50
2022-10-15T02:22:35.040Z,50.80
2022-10-15T02:27:34.775Z,51.20
2022-10-15T02:32:34.733Z,55.10
2022-10-15T02:37:34.688Z,64.40
2022-10-15T02:42:34.625Z,52.40
2022-10-15T02:47:34.714Z,55.60
2022-10-15T02:52:34.662Z,67.40
2022-10-15T02:57:34.498Z,59.20
2022-10-15T03:02:34.446Z,75.40
2022-10-15T03:07:34.491Z,84.40
2022-10-15T03:12:34.306Z,72.20
2022-10-15T03:17:34.249Z,80.90
2022-10-15T03:22:34.189Z,76.60
2022-10-15T03:27:34.247Z,79.40
2022-10-15T03:32:36.324Z,95.50
2022-10-15T03:37:34.124Z,84.80
2022-10-15T03:42:34.058Z,95.20
2022-10-15T03:47:33.996Z,78.70
2022-10-15T03:52:33.866Z,82.50
2022-10-15T03:57:33.803Z,93.80
2022-10-15T04:02:33.744Z,102.80
2022-10-15T04:07:33.679Z,95.80
2022-10-15T04:12:34.812Z,104.90
2022-10-15T06:13:49.950Z,138.60
2022-10-15T06:18:50.318Z,135.70
2022-10-15T06:23:50.992Z,127.90
2022-10-15T06:28:49.542Z,93.60
2022-10-15T06:33:48.911Z,77.00
2022-10-15T06:38:48.915Z,66.50
2022-10-15T06:43:48.894Z,65.40
2022-10-15T06:48:48.851Z,60.30
2022-10-15T06:53:48.725Z,58.90
2022-10-15T06:58:48.779Z,72.00
2022-10-15T07:03:49.650Z,69.80
2022-10-15T07:08:48.667Z,83.50
2022-10-15T07:13:48.529Z,67.00
2022-10-15T07:18:48.487Z,73.70
2022-10-15T07:23:48.409Z,69.40
2022-10-15T07:28:48.448Z,71.30
2022-10-15T07:33:48.342Z,67.80
2022-10-15T07:38:48.300Z,63.60
2022-10-15T07:43:50.165Z,60.70
2022-10-15T07:48:48.147Z,54.70
2022-10-15T07:53:48.116Z,53.50
2022-10-15T07:58:48.107Z,51.00
2022-10-15T08:03:48.007Z,45.60
2022-10-15T08:08:47.928Z,45.80
2022-10-15T08:13:47.853Z,38.30
2022-10-15T08:18:47.969Z,36.00
2022-10-15T08:23:47.803Z,31.60
2022-10-15T08:28:47.777Z,27.90
2022-10-15T08:33:47.883Z,21.70
2022-10-15T08:38:47.655Z,17.90
2022-10-15T08:43:47.563Z,19.50
2022-10-15T08:48:47.568Z,12.00
2022-10-15T08:53:47.487Z,10.50
2022-10-15T08:58:47.600Z,8.60
2022-10-15T09:03:49.575Z,8.80
2022-10-15T09:08:47.448Z,5.10
2022-10-15T09:13:47.350Z,6.10
2022-10-15T09:18:47.167Z,3.10
2022-10-15T09:23:47.174Z,4.90
2022-10-15T09:28:47.197Z,2.70
2022-10-15T09:33:47.196Z,3.30
2022-10-15T09:38:48.018Z,3.00
2022-10-15T09:43:47.034Z,2.00
2022-10-15T09:48:46.770Z,2.90
2022-10-15T09:53:47.120Z,3.10
2022-10-15T09:58:46.789Z,2.80
2022-10-15T10:03:46.792Z,2.50
2022-10-15T10:08:46.720Z,2.40
2022-10-15T10:13:47.610Z,2.90
2022-10-15T10:18:55.339Z,4.70
2022-10-15T10:23:46.457Z,4.30
2022-10-15T10:28:46.391Z,2.70
2022-10-15T10:33:46.387Z,2.00
2022-10-15T10:38:46.461Z,2.70
2022-10-15T10:43:46.348Z,6.40
2022-10-15T10:48:46.120Z,6.90
2022-10-15T10:53:46.075Z,1.90
2022-10-15T10:58:46.211Z,1.70
2022-10-15T11:03:46.003Z,3.30
2022-10-15T11:08:45.889Z,2.20
2022-10-15T11:13:45.891Z,4.10
2022-10-15T11:18:45.811Z,2.60
2022-10-15T11:23:45.782Z,3.30
2022-10-15T11:28:45.857Z,1.70
2022-10-15T11:33:45.701Z,1.80
2022-10-15T11:38:45.586Z,2.20
2022-10-15T11:43:45.497Z,2.90
2022-10-15T11:48:45.439Z,5.60
2022-10-15T11:53:45.503Z,9.60
2022-10-15T11:58:46.394Z,3.70
2022-10-15T12:03:45.425Z,4.30
2022-10-15T12:08:45.234Z,1.90
2022-10-15T12:13:45.153Z,2.70
2022-10-15T12:18:45.116Z,2.50
2022-10-15T12:23:45.068Z,4.70
2022-10-15T12:28:45.085Z,6.90
2022-10-15T12:33:45.016Z,4.70
2022-10-15T12:38:44.949Z,2.20
2022-10-15T12:43:44.883Z,3.50
2022-10-15T12:48:44.803Z,2.50
2022-10-15T12:53:44.773Z,3.50
2022-10-15T12:58:44.699Z,3.60
2022-10-15T13:03:44.623Z,3.40
2022-10-15T13:08:44.559Z,6.50
2022-10-15T13:13:44.510Z,4.50
2022-10-15T13:18:44.489Z,5.60
2022-10-15T13:23:44.596Z,5.30
2022-10-15T13:28:44.526Z,2.10
2022-10-15T13:33:44.486Z,3.90
2022-10-15T13:38:47.316Z,5.60
2022-10-15T13:43:44.185Z,7.50
2022-10-15T13:53:44.172Z,3.40
2022-10-15T13:58:44.092Z,4.70
2022-10-15T14:03:43.960Z,5.70
2022-10-15T14:08:44.090Z,3.90
2022-10-15T14:13:43.929Z,5.00
2022-10-15T14:18:48.139Z,2.30
2022-10-15T14:23:44.739Z,6.00
2022-10-15T14:28:43.804Z,3.50
2022-10-15T14:33:43.764Z,4.60
2022-10-15T14:38:44.734Z,2.60
2022-10-15T14:43:43.625Z,4.40
2022-10-15T14:48:43.571Z,6.10
2022-10-15T14:53:43.404Z,5.40
2022-10-15T14:58:43.567Z,4.40
2022-10-15T15:03:43.406Z,4.10
2022-10-15T15:08:43.283Z,6.60
2022-10-15T15:13:43.260Z,5.30
2022-10-15T15:18:43.214Z,3.70
2022-10-15T15:23:43.202Z,3.90
2022-10-15T15:28:43.108Z,11.20
2022-10-15T15:33:42.965Z,3.60
2022-10-15T15:38:43.072Z,5.40
2022-10-15T15:43:43.019Z,4.80
2022-10-15T15:48:42.848Z,5.10
2022-10-15T15:53:43.518Z,7.60
2022-10-15T15:58:43.090Z,3.70
2022-10-15T16:03:42.654Z,26.60
2022-10-15T16:08:42.731Z,11.40
2022-10-15T16:13:42.632Z,15.80
2022-10-15T16:18:42.698Z,4.60
2022-10-15T16:23:42.515Z,28.70
2022-10-15T16:28:42.498Z,6.90
2022-10-15T16:33:42.359Z,16.30
2022-10-15T16:38:44.412Z,4.90
2022-10-15T16:43:42.211Z,8.90
2022-10-15T16:48:42.228Z,9.70
2022-10-15T16:53:42.114Z,13.40
2022-10-15T16:58:42.163Z,12.10
2022-10-15T17:03:42.079Z,18.50
2022-10-15T17:08:41.940Z,34.90
2022-10-15T17:13:41.881Z,11.70
2022-10-15T17:18:41.898Z,8.50
2022-10-15T17:23:41.914Z,6.80
2022-10-15T17:28:41.831Z,6.20
2022-10-15T17:33:41.662Z,10.70
2022-10-15T17:38:41.621Z,12.90
2022-10-15T17:43:41.665Z,20.70
2022-10-15T17:48:41.600Z,9.80
2022-10-15T17:53:41.496Z,10.30
2022-10-15T17:58:41.484Z,7.70
2022-10-15T18:03:41.413Z,9.00
2022-10-15T18:08:41.311Z,12.10
2022-10-15T18:13:41.210Z,13.40
2022-10-15T18:18:41.202Z,11.30
2022-10-15T18:23:41.155Z,13.80
2022-10-15T18:28:41.236Z,13.80
2022-10-15T18:33:41.132Z,8.70
2022-10-15T18:38:41.092Z,15.70
2022-10-15T18:43:43.118Z,12.10
2022-10-15T18:48:40.863Z,13.80
2022-10-15T18:53:40.799Z,11.80
2022-10-15T18:58:40.728Z,7.70
2022-10-15T19:03:41.724Z,11.70
2022-10-15T19:08:40.621Z,15.00
2022-10-15T19:13:40.675Z,67.50
2022-10-15T19:18:40.640Z,44.20
2022-10-15T19:23:40.479Z,12.00
2022-10-15T19:28:40.468Z,17.70
2022-10-15T19:33:40.434Z,11.20
2022-10-15T19:38:40.491Z,11.10
2022-10-15T19:43:40.399Z,14.90
2022-10-15T19:48:40.218Z,14.80
2022-10-15T19:53:40.241Z,22.80
2022-10-15T19:58:40.097Z,16.00
2022-10-15T20:03:40.187Z,16.90
2022-10-15T20:08:40.155Z,13.80
2022-10-15T20:13:40.059Z,15.60
2022-10-15T20:18:39.895Z,17.80
2022-10-15T20:23:39.835Z,15.00
2022-10-15T20:28:39.850Z,11.50
2022-10-15T20:33:39.797Z,19.50
2022-10-15T20:38:39.794Z,18.80
2022-10-15T20:43:39.705Z,21.70
2022-10-15T20:48:39.587Z,40.40
2022-10-15T20:53:39.510Z,68.10
2022-10-15T20:58:39.513Z,53.70
2022-10-15T21:03:39.537Z,34.50
2022-10-15T21:08:39.492Z,26.10
2022-10-15T21:13:39.476Z,28.50
2022-10-15T21:18:39.372Z,21.60
2022-10-15T21:23:39.183Z,25.10
2022-10-15T21:28:39.313Z,21.60
2022-10-15T21:33:39.067Z,61.40
2022-10-15T21:38:39.143Z,66.80
2022-10-15T21:43:39.099Z,25.60
2022-10-15T21:48:40.065Z,36.70
2022-10-15T21:53:47.882Z,23.90
2022-10-15T21:58:38.752Z,29.40
2022-10-15T22:03:38.736Z,23.80
2022-10-15T22:08:38.759Z,24.40
2022-10-15T22:13:38.706Z,24.10
2022-10-15T22:18:38.622Z,22.50
2022-10-15T22:23:38.571Z,24.10
2022-10-15T22:28:38.481Z,23.40
2022-10-15T22:33:38.404Z,27.20
2022-10-15T22:38:38.344Z,31.60
2022-10-15T22:43:38.270Z,22.50
2022-10-15T22:48:38.270Z,21.20
2022-10-15T22:53:38.222Z,32.60
2022-10-15T22:58:38.163Z,21.80
2022-10-15T23:03:38.068Z,22.00
2022-10-15T23:08:38.025Z,18.40
2022-10-15T23:13:38.099Z,21.90
2022-10-15T23:18:38.024Z,16.30
2022-10-15T23:23:37.949Z,19.10
2022-10-15T23:28:37.950Z,19.90
2022-10-15T23:33:37.728Z,18.60
2022-10-15T23:38:37.747Z,21.20
2022-10-15T23:43:37.628Z,23.30
2022-10-15T23:48:37.557Z,15.50
2022-10-15T23:53:37.622Z,13.70
2022-10-15T23:58:37.479Z,19.70
